< < Back
Terminal Aerodrome Forecast


Current Version              Previous Versions:   1  2  3  4  5  6  7  8  9  

Terminal Aerodrome Forecast

739
FTUS44 KBMX 162300
TAFMGM
TAF
KMGM 162324Z 1700/1724 10007KT P6SM SKC
     FM171500 10010KT P6SM OVC035=

Latest METAR

070
SAUS80 KWBC 170700 RRA
MTRMGM
METAR KMGM 170653Z AUTO 10009KT 10SM CLR 09/04 A3025 RMK AO2 SLP242
T00940039


USA.gov is the U.S. government's official web portal to all federal, state and local government web resources and services.